sensor_id;sensor_type;location;lat;lon;timestamp;temperature;humidity
44517;DHT22;30223;17.182;-96.766;2023-02-18T00:01:37;26.70;42.80
44517;DHT22;30223;17.182;-96.766;2023-02-18T00:04:04;26.60;42.50
44517;DHT22;30223;17.182;-96.766;2023-02-18T00:06:33;26.60;42.30
44517;DHT22;30223;17.182;-96.766;2023-02-18T00:09:00;26.60;42.50
44517;DHT22;30223;17.182;-96.766;2023-02-18T00:11:43;26.50;42.00
44517;DHT22;30223;17.182;-96.766;2023-02-18T00:14:12;26.50;42.20
44517;DHT22;30223;17.182;-96.766;2023-02-18T00:16:40;26.50;42.00
44517;DHT22;30223;17.182;-96.766;2023-02-18T00:19:09;26.40;41.40
44517;DHT22;30223;17.182;-96.766;2023-02-18T00:21:36;26.40;41.80
44517;DHT22;30223;17.182;-96.766;2023-02-18T00:28:35;26.30;41.20
44517;DHT22;30223;17.182;-96.766;2023-02-18T00:31:18;26.30;41.00
44517;DHT22;30223;17.182;-96.766;2023-02-18T00:33:45;26.30;41.90
44517;DHT22;30223;17.182;-96.766;2023-02-18T00:38:58;26.20;41.40
44517;DHT22;30223;17.182;-96.766;2023-02-18T00:43:55;26.20;41.20
44517;DHT22;30223;17.182;-96.766;2023-02-18T00:46:23;26.20;41.80
44517;DHT22;30223;17.182;-96.766;2023-02-18T00:48:50;26.20;41.90
44517;DHT22;30223;17.182;-96.766;2023-02-18T00:51:16;26.10;41.20
44517;DHT22;30223;17.182;-96.766;2023-02-18T00:53:43;26.10;40.90
44517;DHT22;30223;17.182;-96.766;2023-02-18T00:56:10;26.10;41.30
44517;DHT22;30223;17.182;-96.766;2023-02-18T00:58:37;26.10;41.80
44517;DHT22;30223;17.182;-96.766;2023-02-18T01:01:05;26.10;41.80
44517;DHT22;30223;17.182;-96.766;2023-02-18T01:03:32;26.00;41.60
44517;DHT22;30223;17.182;-96.766;2023-02-18T01:05:58;26.00;41.50
44517;DHT22;30223;17.182;-96.766;2023-02-18T01:11:59;26.00;40.90
44517;DHT22;30223;17.182;-96.766;2023-02-18T01:14:26;25.90;40.80
44517;DHT22;30223;17.182;-96.766;2023-02-18T01:19:18;25.90;40.70
44517;DHT22;30223;17.182;-96.766;2023-02-18T01:21:44;26.00;41.50
44517;DHT22;30223;17.182;-96.766;2023-02-18T01:24:11;26.10;41.00
44517;DHT22;30223;17.182;-96.766;2023-02-18T01:26:38;26.10;40.60
44517;DHT22;30223;17.182;-96.766;2023-02-18T01:29:04;26.10;40.70
44517;DHT22;30223;17.182;-96.766;2023-02-18T01:31:31;26.10;40.50
44517;DHT22;30223;17.182;-96.766;2023-02-18T01:33:57;26.10;40.70
44517;DHT22;30223;17.182;-96.766;2023-02-18T01:36:24;26.20;41.20
44517;DHT22;30223;17.182;-96.766;2023-02-18T01:38:51;26.20;40.60
44517;DHT22;30223;17.182;-96.766;2023-02-18T01:41:18;26.20;41.40
44517;DHT22;30223;17.182;-96.766;2023-02-18T01:43:45;26.30;41.00
44517;DHT22;30223;17.182;-96.766;2023-02-18T01:46:17;26.30;40.60
44517;DHT22;30223;17.182;-96.766;2023-02-18T01:48:56;26.30;41.20
44517;DHT22;30223;17.182;-96.766;2023-02-18T01:51:30;26.20;39.30
44517;DHT22;30223;17.182;-96.766;2023-02-18T01:54:10;26.20;40.90
44517;DHT22;30223;17.182;-96.766;2023-02-18T01:56:56;26.20;42.10
44517;DHT22;30223;17.182;-96.766;2023-02-18T01:59:36;26.20;40.80
44517;DHT22;30223;17.182;-96.766;2023-02-18T02:02:04;26.10;40.00
44517;DHT22;30223;17.182;-96.766;2023-02-18T02:04:32;26.10;40.00
44517;DHT22;30223;17.182;-96.766;2023-02-18T02:07:00;26.10;40.40
44517;DHT22;30223;17.182;-96.766;2023-02-18T02:09:28;26.20;40.20
44517;DHT22;30223;17.182;-96.766;2023-02-18T02:12:13;26.20;40.40
44517;DHT22;30223;17.182;-96.766;2023-02-18T02:17:51;26.20;40.30
44517;DHT22;30223;17.182;-96.766;2023-02-18T02:28:35;26.20;40.40
44517;DHT22;30223;17.182;-96.766;2023-02-18T02:40:19;26.00;39.90
44517;DHT22;30223;17.182;-96.766;2023-02-18T02:43:11;26.00;39.80
44517;DHT22;30223;17.182;-96.766;2023-02-18T02:48:31;25.90;40.30
44517;DHT22;30223;17.182;-96.766;2023-02-18T02:51:13;25.80;40.00
44517;DHT22;30223;17.182;-96.766;2023-02-18T02:53:41;25.70;39.90
44517;DHT22;30223;17.182;-96.766;2023-02-18T02:56:20;25.70;40.10
44517;DHT22;30223;17.182;-96.766;2023-02-18T02:59:07;25.70;40.40
44517;DHT22;30223;17.182;-96.766;2023-02-18T03:07:13;25.50;40.10
44517;DHT22;30223;17.182;-96.766;2023-02-18T03:12:35;25.50;40.40
44517;DHT22;30223;17.182;-96.766;2023-02-18T03:15:14;25.50;40.50
44517;DHT22;30223;17.182;-96.766;2023-02-18T03:20:52;25.40;40.50
44517;DHT22;30223;17.182;-96.766;2023-02-18T03:23:28;25.30;40.40
44517;DHT22;30223;17.182;-96.766;2023-02-18T03:25:57;25.30;40.20
44517;DHT22;30223;17.182;-96.766;2023-02-18T03:28:27;25.30;40.00
44517;DHT22;30223;17.182;-96.766;2023-02-18T03:31:04;25.30;40.20
44517;DHT22;30223;17.182;-96.766;2023-02-18T03:33:38;25.30;40.20
44517;DHT22;30223;17.182;-96.766;2023-02-18T03:36:06;25.20;39.80
44517;DHT22;30223;17.182;-96.766;2023-02-18T03:38:39;25.20;39.80
44517;DHT22;30223;17.182;-96.766;2023-02-18T03:41:13;25.20;39.80
44517;DHT22;30223;17.182;-96.766;2023-02-18T03:43:49;25.20;39.70
44517;DHT22;30223;17.182;-96.766;2023-02-18T03:46:16;25.10;39.70
44517;DHT22;30223;17.182;-96.766;2023-02-18T03:48:43;25.10;39.60
44517;DHT22;30223;17.182;-96.766;2023-02-18T03:51:10;25.10;40.40
44517;DHT22;30223;17.182;-96.766;2023-02-18T03:53:36;25.10;39.80
44517;DHT22;30223;17.182;-96.766;2023-02-18T03:56:03;25.10;39.80
44517;DHT22;30223;17.182;-96.766;2023-02-18T03:58:30;25.10;39.90
44517;DHT22;30223;17.182;-96.766;2023-02-18T04:00:56;25.00;39.80
44517;DHT22;30223;17.182;-96.766;2023-02-18T04:03:24;25.00;39.90
44517;DHT22;30223;17.182;-96.766;2023-02-18T04:05:50;25.00;40.20
44517;DHT22;30223;17.182;-96.766;2023-02-18T04:08:17;25.00;40.30
44517;DHT22;30223;17.182;-96.766;2023-02-18T04:10:43;25.00;40.40
44517;DHT22;30223;17.182;-96.766;2023-02-18T04:13:10;25.00;40.40
44517;DHT22;30223;17.182;-96.766;2023-02-18T04:15:36;24.90;40.40
44517;DHT22;30223;17.182;-96.766;2023-02-18T04:18:03;24.90;40.40
44517;DHT22;30223;17.182;-96.766;2023-02-18T04:20:31;24.90;40.50
44517;DHT22;30223;17.182;-96.766;2023-02-18T04:22:57;24.90;40.70
44517;DHT22;30223;17.182;-96.766;2023-02-18T04:25:24;24.90;40.90
44517;DHT22;30223;17.182;-96.766;2023-02-18T04:27:50;24.80;40.90
44517;DHT22;30223;17.182;-96.766;2023-02-18T04:30:17;24.80;41.00
44517;DHT22;30223;17.182;-96.766;2023-02-18T04:32:44;24.80;41.00
44517;DHT22;30223;17.182;-96.766;2023-02-18T04:35:11;24.80;41.00
44517;DHT22;30223;17.182;-96.766;2023-02-18T04:37:37;24.80;41.00
44517;DHT22;30223;17.182;-96.766;2023-02-18T04:40:05;24.80;41.00
44517;DHT22;30223;17.182;-96.766;2023-02-18T04:42:31;24.80;41.00
44517;DHT22;30223;17.182;-96.766;2023-02-18T04:44:58;24.70;41.10
44517;DHT22;30223;17.182;-96.766;2023-02-18T04:47:25;24.70;41.10
44517;DHT22;30223;17.182;-96.766;2023-02-18T04:49:51;24.70;41.10
44517;DHT22;30223;17.182;-96.766;2023-02-18T04:52:18;24.70;41.10
44517;DHT22;30223;17.182;-96.766;2023-02-18T04:54:45;24.60;41.20
44517;DHT22;30223;17.182;-96.766;2023-02-18T04:57:12;24.60;41.30
44517;DHT22;30223;17.182;-96.766;2023-02-18T04:59:38;24.60;41.30
44517;DHT22;30223;17.182;-96.766;2023-02-18T05:02:05;24.60;41.40
44517;DHT22;30223;17.182;-96.766;2023-02-18T05:04:32;24.60;41.40
44517;DHT22;30223;17.182;-96.766;2023-02-18T05:07:01;24.60;41.40
44517;DHT22;30223;17.182;-96.766;2023-02-18T05:09:28;24.50;41.40
44517;DHT22;30223;17.182;-96.766;2023-02-18T05:11:54;24.50;41.40
44517;DHT22;30223;17.182;-96.766;2023-02-18T05:14:21;24.50;41.50
44517;DHT22;30223;17.182;-96.766;2023-02-18T05:16:47;24.50;41.60
44517;DHT22;30223;17.182;-96.766;2023-02-18T05:19:14;24.50;41.70
44517;DHT22;30223;17.182;-96.766;2023-02-18T05:21:42;24.40;41.80
44517;DHT22;30223;17.182;-96.766;2023-02-18T05:24:11;24.50;43.20
44517;DHT22;30223;17.182;-96.766;2023-02-18T05:26:38;24.40;45.20
44517;DHT22;30223;17.182;-96.766;2023-02-18T05:29:05;24.40;44.10
44517;DHT22;30223;17.182;-96.766;2023-02-18T05:31:32;24.40;44.40
44517;DHT22;30223;17.182;-96.766;2023-02-18T05:33:58;24.40;44.70
44517;DHT22;30223;17.182;-96.766;2023-02-18T05:36:25;24.40;44.00
44517;DHT22;30223;17.182;-96.766;2023-02-18T05:38:51;24.40;44.20
44517;DHT22;30223;17.182;-96.766;2023-02-18T05:41:18;24.40;44.10
44517;DHT22;30223;17.182;-96.766;2023-02-18T05:43:45;24.30;43.90
44517;DHT22;30223;17.182;-96.766;2023-02-18T05:46:31;24.30;44.00
44517;DHT22;30223;17.182;-96.766;2023-02-18T05:48:57;24.30;43.50
44517;DHT22;30223;17.182;-96.766;2023-02-18T05:51:24;24.30;43.30
44517;DHT22;30223;17.182;-96.766;2023-02-18T05:53:51;24.20;43.30
44517;DHT22;30223;17.182;-96.766;2023-02-18T05:56:17;24.30;43.90
44517;DHT22;30223;17.182;-96.766;2023-02-18T05:58:44;24.30;43.60
44517;DHT22;30223;17.182;-96.766;2023-02-18T06:01:11;24.20;43.50
44517;DHT22;30223;17.182;-96.766;2023-02-18T06:03:37;24.20;43.90
44517;DHT22;30223;17.182;-96.766;2023-02-18T06:06:04;24.20;43.50
44517;DHT22;30223;17.182;-96.766;2023-02-18T06:08:31;24.20;43.30
44517;DHT22;30223;17.182;-96.766;2023-02-18T06:10:58;24.20;43.30
44517;DHT22;30223;17.182;-96.766;2023-02-18T06:13:24;24.10;43.60
44517;DHT22;30223;17.182;-96.766;2023-02-18T06:15:51;24.20;43.70
44517;DHT22;30223;17.182;-96.766;2023-02-18T06:18:19;24.10;43.90
44517;DHT22;30223;17.182;-96.766;2023-02-18T06:20:49;24.10;43.40
44517;DHT22;30223;17.182;-96.766;2023-02-18T06:23:15;24.10;43.20
44517;DHT22;30223;17.182;-96.766;2023-02-18T06:25:42;24.10;43.10
44517;DHT22;30223;17.182;-96.766;2023-02-18T06:28:09;24.00;43.20
44517;DHT22;30223;17.182;-96.766;2023-02-18T06:30:35;24.00;43.10
44517;DHT22;30223;17.182;-96.766;2023-02-18T06:33:02;24.00;43.30
44517;DHT22;30223;17.182;-96.766;2023-02-18T06:35:31;24.00;43.20
44517;DHT22;30223;17.182;-96.766;2023-02-18T06:37:58;24.00;43.30
44517;DHT22;30223;17.182;-96.766;2023-02-18T06:40:24;24.00;43.20
44517;DHT22;30223;17.182;-96.766;2023-02-18T06:42:51;24.10;43.20
44517;DHT22;30223;17.182;-96.766;2023-02-18T06:45:18;24.10;43.30
44517;DHT22;30223;17.182;-96.766;2023-02-18T06:47:45;24.10;43.20
44517;DHT22;30223;17.182;-96.766;2023-02-18T06:50:11;24.10;43.20
44517;DHT22;30223;17.182;-96.766;2023-02-18T06:52:38;24.10;43.40
44517;DHT22;30223;17.182;-96.766;2023-02-18T06:55:06;24.10;43.00
44517;DHT22;30223;17.182;-96.766;2023-02-18T06:57:33;24.10;43.00
44517;DHT22;30223;17.182;-96.766;2023-02-18T06:59:59;24.10;42.90
44517;DHT22;30223;17.182;-96.766;2023-02-18T07:02:26;24.10;42.80
44517;DHT22;30223;17.182;-96.766;2023-02-18T07:04:53;24.00;42.80
44517;DHT22;30223;17.182;-96.766;2023-02-18T07:07:20;24.00;42.90
44517;DHT22;30223;17.182;-96.766;2023-02-18T07:09:46;23.90;42.90
44517;DHT22;30223;17.182;-96.766;2023-02-18T07:12:13;23.80;43.00
44517;DHT22;30223;17.182;-96.766;2023-02-18T07:14:40;23.80;43.10
44517;DHT22;30223;17.182;-96.766;2023-02-18T07:17:06;23.80;43.20
44517;DHT22;30223;17.182;-96.766;2023-02-18T07:19:33;23.70;43.30
44517;DHT22;30223;17.182;-96.766;2023-02-18T07:22:00;23.70;43.40
44517;DHT22;30223;17.182;-96.766;2023-02-18T07:24:26;23.60;43.40
44517;DHT22;30223;17.182;-96.766;2023-02-18T07:26:53;23.60;43.50
44517;DHT22;30223;17.182;-96.766;2023-02-18T07:29:20;23.60;43.60
44517;DHT22;30223;17.182;-96.766;2023-02-18T07:31:46;23.50;43.60
44517;DHT22;30223;17.182;-96.766;2023-02-18T07:34:13;23.50;43.60
44517;DHT22;30223;17.182;-96.766;2023-02-18T07:36:39;23.40;43.70
44517;DHT22;30223;17.182;-96.766;2023-02-18T07:39:07;23.40;43.70
44517;DHT22;30223;17.182;-96.766;2023-02-18T07:41:34;23.40;43.90
44517;DHT22;30223;17.182;-96.766;2023-02-18T07:44:00;23.30;43.90
44517;DHT22;30223;17.182;-96.766;2023-02-18T07:46:27;23.30;43.90
44517;DHT22;30223;17.182;-96.766;2023-02-18T07:48:55;23.30;44.00
44517;DHT22;30223;17.182;-96.766;2023-02-18T07:51:21;23.30;44.00
44517;DHT22;30223;17.182;-96.766;2023-02-18T07:53:48;23.30;44.20
44517;DHT22;30223;17.182;-96.766;2023-02-18T07:56:15;23.20;44.10
44517;DHT22;30223;17.182;-96.766;2023-02-18T07:58:41;23.20;44.20
44517;DHT22;30223;17.182;-96.766;2023-02-18T08:01:10;23.20;44.20
44517;DHT22;30223;17.182;-96.766;2023-02-18T08:03:38;23.10;44.20
44517;DHT22;30223;17.182;-96.766;2023-02-18T08:06:05;23.10;44.30
44517;DHT22;30223;17.182;-96.766;2023-02-18T08:08:32;23.10;44.40
44517;DHT22;30223;17.182;-96.766;2023-02-18T08:11:01;23.10;44.40
44517;DHT22;30223;17.182;-96.766;2023-02-18T08:13:29;23.10;44.40
44517;DHT22;30223;17.182;-96.766;2023-02-18T08:15:56;23.00;44.40
44517;DHT22;30223;17.182;-96.766;2023-02-18T08:18:24;23.00;44.50
44517;DHT22;30223;17.182;-96.766;2023-02-18T08:20:51;22.90;44.50
44517;DHT22;30223;17.182;-96.766;2023-02-18T08:23:20;22.90;44.60
44517;DHT22;30223;17.182;-96.766;2023-02-18T08:25:49;22.90;44.60
44517;DHT22;30223;17.182;-96.766;2023-02-18T08:28:20;22.90;44.60
44517;DHT22;30223;17.182;-96.766;2023-02-18T08:30:48;22.90;44.70
44517;DHT22;30223;17.182;-96.766;2023-02-18T08:33:16;22.80;44.60
44517;DHT22;30223;17.182;-96.766;2023-02-18T08:35:44;22.80;44.70
44517;DHT22;30223;17.182;-96.766;2023-02-18T08:38:11;22.80;44.70
44517;DHT22;30223;17.182;-96.766;2023-02-18T08:40:37;22.80;44.70
44517;DHT22;30223;17.182;-96.766;2023-02-18T08:43:06;22.80;44.80
44517;DHT22;30223;17.182;-96.766;2023-02-18T08:45:32;22.80;44.90
44517;DHT22;30223;17.182;-96.766;2023-02-18T08:47:59;22.70;44.80
44517;DHT22;30223;17.182;-96.766;2023-02-18T08:50:27;22.70;45.50
44517;DHT22;30223;17.182;-96.766;2023-02-18T08:52:53;22.70;44.90
44517;DHT22;30223;17.182;-96.766;2023-02-18T08:55:21;22.70;44.90
44517;DHT22;30223;17.182;-96.766;2023-02-18T08:57:49;22.60;44.90
44517;DHT22;30223;17.182;-96.766;2023-02-18T09:00:16;22.60;45.00
44517;DHT22;30223;17.182;-96.766;2023-02-18T09:02:43;22.60;45.00
44517;DHT22;30223;17.182;-96.766;2023-02-18T09:05:11;22.60;45.00
44517;DHT22;30223;17.182;-96.766;2023-02-18T09:07:38;22.60;45.00
44517;DHT22;30223;17.182;-96.766;2023-02-18T09:10:05;22.50;45.00
44517;DHT22;30223;17.182;-96.766;2023-02-18T09:12:32;22.50;45.00
44517;DHT22;30223;17.182;-96.766;2023-02-18T09:14:59;22.50;45.00
44517;DHT22;30223;17.182;-96.766;2023-02-18T09:17:26;22.50;45.10
44517;DHT22;30223;17.182;-96.766;2023-02-18T09:19:53;22.50;45.20
44517;DHT22;30223;17.182;-96.766;2023-02-18T09:22:19;22.50;45.20
44517;DHT22;30223;17.182;-96.766;2023-02-18T09:24:46;22.40;45.20
44517;DHT22;30223;17.182;-96.766;2023-02-18T09:27:13;22.40;45.20
44517;DHT22;30223;17.182;-96.766;2023-02-18T09:29:40;22.40;45.20
44517;DHT22;30223;17.182;-96.766;2023-02-18T09:32:08;22.40;45.20
44517;DHT22;30223;17.182;-96.766;2023-02-18T09:34:35;22.30;45.30
44517;DHT22;30223;17.182;-96.766;2023-02-18T09:37:02;22.40;45.30
44517;DHT22;30223;17.182;-96.766;2023-02-18T09:39:29;22.30;45.30
44517;DHT22;30223;17.182;-96.766;2023-02-18T09:42:02;22.30;45.30
44517;DHT22;30223;17.182;-96.766;2023-02-18T09:44:37;22.30;45.30
44517;DHT22;30223;17.182;-96.766;2023-02-18T09:47:51;22.30;45.40
44517;DHT22;30223;17.182;-96.766;2023-02-18T09:49:55;22.30;45.40
44517;DHT22;30223;17.182;-96.766;2023-02-18T09:52:32;22.30;45.40
44517;DHT22;30223;17.182;-96.766;2023-02-18T09:55:00;22.20;45.40
44517;DHT22;30223;17.182;-96.766;2023-02-18T09:57:37;22.20;45.40
44517;DHT22;30223;17.182;-96.766;2023-02-18T10:00:12;22.20;45.40
44517;DHT22;30223;17.182;-96.766;2023-02-18T10:02:44;22.20;45.50
44517;DHT22;30223;17.182;-96.766;2023-02-18T10:05:15;22.20;45.50
44517;DHT22;30223;17.182;-96.766;2023-02-18T10:07:42;22.10;45.50
44517;DHT22;30223;17.182;-96.766;2023-02-18T10:10:42;22.10;45.50
44517;DHT22;30223;17.182;-96.766;2023-02-18T10:13:23;22.10;45.50
44517;DHT22;30223;17.182;-96.766;2023-02-18T10:15:51;22.10;45.50
44517;DHT22;30223;17.182;-96.766;2023-02-18T10:18:30;22.10;45.60
44517;DHT22;30223;17.182;-96.766;2023-02-18T10:21:19;22.00;45.50
44517;DHT22;30223;17.182;-96.766;2023-02-18T10:24:12;22.00;45.50
44517;DHT22;30223;17.182;-96.766;2023-02-18T10:26:41;22.00;45.60
44517;DHT22;30223;17.182;-96.766;2023-02-18T10:29:17;22.00;45.60
44517;DHT22;30223;17.182;-96.766;2023-02-18T10:32:06;22.00;45.60
44517;DHT22;30223;17.182;-96.766;2023-02-18T10:34:38;21.90;45.60
44517;DHT22;30223;17.182;-96.766;2023-02-18T10:45:20;21.90;45.70
44517;DHT22;30223;17.182;-96.766;2023-02-18T10:50:52;21.80;45.70
44517;DHT22;30223;17.182;-96.766;2023-02-18T10:55:57;21.70;45.70
44517;DHT22;30223;17.182;-96.766;2023-02-18T10:58:42;21.80;45.80
44517;DHT22;30223;17.182;-96.766;2023-02-18T11:01:15;21.70;45.70
44517;DHT22;30223;17.182;-96.766;2023-02-18T11:03:46;21.70;45.70
44517;DHT22;30223;17.182;-96.766;2023-02-18T11:06:33;21.70;45.70
44517;DHT22;30223;17.182;-96.766;2023-02-18T11:09:03;21.70;45.80
44517;DHT22;30223;17.182;-96.766;2023-02-18T11:11:33;21.70;45.80
44517;DHT22;30223;17.182;-96.766;2023-02-18T11:14:02;21.60;45.80
44517;DHT22;30223;17.182;-96.766;2023-02-18T11:16:55;21.60;45.80
44517;DHT22;30223;17.182;-96.766;2023-02-18T11:19:35;21.60;45.70
44517;DHT22;30223;17.182;-96.766;2023-02-18T11:24:47;21.60;45.80
44517;DHT22;30223;17.182;-96.766;2023-02-18T11:32:51;21.50;45.80
44517;DHT22;30223;17.182;-96.766;2023-02-18T11:35:21;21.50;45.80
44517;DHT22;30223;17.182;-96.766;2023-02-18T11:37:49;21.50;45.80
44517;DHT22;30223;17.182;-96.766;2023-02-18T11:40:31;21.50;45.90
44517;DHT22;30223;17.182;-96.766;2023-02-18T11:43:12;21.40;45.90
44517;DHT22;30223;17.182;-96.766;2023-02-18T11:45:40;21.40;45.90
44517;DHT22;30223;17.182;-96.766;2023-02-18T11:48:14;21.40;45.90
44517;DHT22;30223;17.182;-96.766;2023-02-18T11:50:41;21.40;45.90
44517;DHT22;30223;17.182;-96.766;2023-02-18T11:53:37;21.40;45.90
44517;DHT22;30223;17.182;-96.766;2023-02-18T11:56:15;21.40;45.90
44517;DHT22;30223;17.182;-96.766;2023-02-18T11:58:46;21.30;45.80
44517;DHT22;30223;17.182;-96.766;2023-02-18T12:04:12;21.30;45.90
44517;DHT22;30223;17.182;-96.766;2023-02-18T12:09:39;21.20;46.00
44517;DHT22;30223;17.182;-96.766;2023-02-18T12:12:16;21.20;46.00
44517;DHT22;30223;17.182;-96.766;2023-02-18T12:14:44;21.20;46.00
44517;DHT22;30223;17.182;-96.766;2023-02-18T12:25:40;21.10;46.00
44517;DHT22;30223;17.182;-96.766;2023-02-18T12:28:39;21.10;46.10
44517;DHT22;30223;17.182;-96.766;2023-02-18T12:33:57;21.10;46.10
44517;DHT22;30223;17.182;-96.766;2023-02-18T12:45:24;21.00;46.10
44517;DHT22;30223;17.182;-96.766;2023-02-18T12:51:19;20.90;46.10
44517;DHT22;30223;17.182;-96.766;2023-02-18T13:05:03;20.90;46.30
44517;DHT22;30223;17.182;-96.766;2023-02-18T13:08:02;20.80;46.20
44517;DHT22;30223;17.182;-96.766;2023-02-18T13:14:07;20.80;46.20
44517;DHT22;30223;17.182;-96.766;2023-02-18T13:16:13;20.80;46.30
44517;DHT22;30223;17.182;-96.766;2023-02-18T13:19:01;20.70;46.30
44517;DHT22;30223;17.182;-96.766;2023-02-18T13:21:29;20.80;46.30
44517;DHT22;30223;17.182;-96.766;2023-02-18T13:24:09;20.70;46.30
44517;DHT22;30223;17.182;-96.766;2023-02-18T13:26:37;20.70;46.30
44517;DHT22;30223;17.182;-96.766;2023-02-18T13:29:14;20.70;46.30
44517;DHT22;30223;17.182;-96.766;2023-02-18T13:35:19;20.60;46.30
44517;DHT22;30223;17.182;-96.766;2023-02-18T13:40:41;20.60;46.30
44517;DHT22;30223;17.182;-96.766;2023-02-18T13:43:29;20.60;46.40
44517;DHT22;30223;17.182;-96.766;2023-02-18T13:46:13;20.60;46.40
44517;DHT22;30223;17.182;-96.766;2023-02-18T13:54:24;20.50;46.50
44517;DHT22;30223;17.182;-96.766;2023-02-18T13:57:00;20.50;46.50
44517;DHT22;30223;17.182;-96.766;2023-02-18T13:59:48;20.50;46.60
44517;DHT22;30223;17.182;-96.766;2023-02-18T14:02:35;20.50;46.60
44517;DHT22;30223;17.182;-96.766;2023-02-18T14:20:45;20.40;46.80
44517;DHT22;30223;17.182;-96.766;2023-02-18T14:50:32;20.40;47.20
44517;DHT22;30223;17.182;-96.766;2023-02-18T14:53:06;20.40;47.30
44517;DHT22;30223;17.182;-96.766;2023-02-18T14:55:43;20.40;47.30
44517;DHT22;30223;17.182;-96.766;2023-02-18T14:58:36;20.40;47.30
44517;DHT22;30223;17.182;-96.766;2023-02-18T15:01:19;20.50;47.40
44517;DHT22;30223;17.182;-96.766;2023-02-18T15:03:48;20.40;47.40
44517;DHT22;30223;17.182;-96.766;2023-02-18T15:06:40;20.50;47.50
44517;DHT22;30223;17.182;-96.766;2023-02-18T15:09:20;20.50;47.50
44517;DHT22;30223;17.182;-96.766;2023-02-18T15:12:06;20.50;47.60
44517;DHT22;30223;17.182;-96.766;2023-02-18T15:14:37;20.50;47.50
44517;DHT22;30223;17.182;-96.766;2023-02-18T15:17:07;20.50;47.60
44517;DHT22;30223;17.182;-96.766;2023-02-18T15:19:50;20.50;47.70
44517;DHT22;30223;17.182;-96.766;2023-02-18T15:22:20;20.60;47.80
44517;DHT22;30223;17.182;-96.766;2023-02-18T15:24:48;20.60;47.70
44517;DHT22;30223;17.182;-96.766;2023-02-18T15:27:29;20.60;47.80
44517;DHT22;30223;17.182;-96.766;2023-02-18T15:29:58;20.60;47.70
44517;DHT22;30223;17.182;-96.766;2023-02-18T15:32:30;20.60;47.80
44517;DHT22;30223;17.182;-96.766;2023-02-18T15:34:59;20.60;47.80
44517;DHT22;30223;17.182;-96.766;2023-02-18T15:37:30;20.60;47.90
44517;DHT22;30223;17.182;-96.766;2023-02-18T15:39:57;20.60;47.80
44517;DHT22;30223;17.182;-96.766;2023-02-18T15:42:30;20.70;47.90
44517;DHT22;30223;17.182;-96.766;2023-02-18T15:45:03;20.70;47.90
44517;DHT22;30223;17.182;-96.766;2023-02-18T15:47:31;20.80;48.00
44517;DHT22;30223;17.182;-96.766;2023-02-18T15:50:00;20.70;47.90
44517;DHT22;30223;17.182;-96.766;2023-02-18T15:52:33;20.70;47.90
44517;DHT22;30223;17.182;-96.766;2023-02-18T15:55:09;20.80;48.00
44517;DHT22;30223;17.182;-96.766;2023-02-18T15:57:38;20.80;48.20
44517;DHT22;30223;17.182;-96.766;2023-02-18T16:00:20;20.80;48.00
44517;DHT22;30223;17.182;-96.766;2023-02-18T16:03:01;20.90;48.10
44517;DHT22;30223;17.182;-96.766;2023-02-18T16:05:29;20.90;48.10
44517;DHT22;30223;17.182;-96.766;2023-02-18T16:08:03;20.80;48.10
44517;DHT22;30223;17.182;-96.766;2023-02-18T16:13:02;20.90;48.20
44517;DHT22;30223;17.182;-96.766;2023-02-18T16:15:32;20.90;48.20
44517;DHT22;30223;17.182;-96.766;2023-02-18T16:18:03;20.90;48.20
44517;DHT22;30223;17.182;-96.766;2023-02-18T16:20:35;20.90;48.20
44517;DHT22;30223;17.182;-96.766;2023-02-18T16:23:10;20.90;48.20
44517;DHT22;30223;17.182;-96.766;2023-02-18T16:25:47;20.90;48.20
44517;DHT22;30223;17.182;-96.766;2023-02-18T16:28:23;20.90;48.20
44517;DHT22;30223;17.182;-96.766;2023-02-18T16:30:52;21.00;48.30
44517;DHT22;30223;17.182;-96.766;2023-02-18T16:33:19;21.00;48.30
44517;DHT22;30223;17.182;-96.766;2023-02-18T16:35:46;21.00;48.30
44517;DHT22;30223;17.182;-96.766;2023-02-18T16:38:17;21.10;48.30
44517;DHT22;30223;17.182;-96.766;2023-02-18T16:40:44;21.10;48.30
44517;DHT22;30223;17.182;-96.766;2023-02-18T16:43:14;21.10;48.30
44517;DHT22;30223;17.182;-96.766;2023-02-18T16:45:43;21.10;48.30
44517;DHT22;30223;17.182;-96.766;2023-02-18T16:48:29;21.20;48.30
44517;DHT22;30223;17.182;-96.766;2023-02-18T16:50:58;21.20;48.20
44517;DHT22;30223;17.182;-96.766;2023-02-18T16:53:25;21.20;48.20
44517;DHT22;30223;17.182;-96.766;2023-02-18T16:55:52;21.20;48.20
44517;DHT22;30223;17.182;-96.766;2023-02-18T16:58:19;21.20;48.30
44517;DHT22;30223;17.182;-96.766;2023-02-18T17:00:45;21.20;48.30
44517;DHT22;30223;17.182;-96.766;2023-02-18T17:03:13;21.30;48.40
44517;DHT22;30223;17.182;-96.766;2023-02-18T17:05:39;21.30;48.30
44517;DHT22;30223;17.182;-96.766;2023-02-18T17:08:26;21.30;48.40
44517;DHT22;30223;17.182;-96.766;2023-02-18T17:10:55;21.40;48.30
44517;DHT22;30223;17.182;-96.766;2023-02-18T17:13:26;21.40;48.50
44517;DHT22;30223;17.182;-96.766;2023-02-18T17:15:57;21.40;48.40
44517;DHT22;30223;17.182;-96.766;2023-02-18T17:18:25;21.50;48.60
44517;DHT22;30223;17.182;-96.766;2023-02-18T17:20:52;21.40;48.70
44517;DHT22;30223;17.182;-96.766;2023-02-18T17:23:21;21.50;48.90
44517;DHT22;30223;17.182;-96.766;2023-02-18T17:25:52;21.50;48.90
44517;DHT22;30223;17.182;-96.766;2023-02-18T17:28:19;21.50;48.90
44517;DHT22;30223;17.182;-96.766;2023-02-18T17:30:56;21.50;49.00
44517;DHT22;30223;17.182;-96.766;2023-02-18T17:33:23;21.50;49.00
44517;DHT22;30223;17.182;-96.766;2023-02-18T17:35:51;21.50;49.00
44517;DHT22;30223;17.182;-96.766;2023-02-18T17:38:19;21.50;49.20
44517;DHT22;30223;17.182;-96.766;2023-02-18T17:40:45;21.60;49.30
44517;DHT22;30223;17.182;-96.766;2023-02-18T17:43:15;21.60;49.20
44517;DHT22;30223;17.182;-96.766;2023-02-18T17:46:02;21.60;49.20
44517;DHT22;30223;17.182;-96.766;2023-02-18T17:48:28;21.60;49.20
44517;DHT22;30223;17.182;-96.766;2023-02-18T17:50:55;21.60;49.30
44517;DHT22;30223;17.182;-96.766;2023-02-18T17:53:22;21.60;49.20
44517;DHT22;30223;17.182;-96.766;2023-02-18T17:55:50;21.70;49.30
44517;DHT22;30223;17.182;-96.766;2023-02-18T17:58:17;21.80;49.70
44517;DHT22;30223;17.182;-96.766;2023-02-18T18:00:49;21.90;49.50
44517;DHT22;30223;17.182;-96.766;2023-02-18T18:03:16;22.00;49.60
44517;DHT22;30223;17.182;-96.766;2023-02-18T18:05:45;22.10;49.70
44517;DHT22;30223;17.182;-96.766;2023-02-18T18:08:12;22.30;49.20
44517;DHT22;30223;17.182;-96.766;2023-02-18T18:10:45;22.30;48.80
44517;DHT22;30223;17.182;-96.766;2023-02-18T18:13:26;22.50;48.90
44517;DHT22;30223;17.182;-96.766;2023-02-18T18:15:54;22.50;49.10
44517;DHT22;30223;17.182;-96.766;2023-02-18T18:18:21;22.70;48.90